sensor_id;sensor_type;location;lat;lon;timestamp;P1;durP1;ratioP1;P2;durP2;ratioP2
57832;SDS011;43667;53.036;6.740;2023-04-06T00:00:43;11.13;;;4.20;;
57832;SDS011;43667;53.036;6.740;2023-04-06T00:03:08;5.05;;;4.25;;
57832;SDS011;43667;53.036;6.740;2023-04-06T00:05:34;6.20;;;4.25;;
57832;SDS011;43667;53.036;6.740;2023-04-06T00:08:00;12.65;;;4.40;;
57832;SDS011;43667;53.036;6.740;2023-04-06T00:10:25;8.23;;;4.50;;
57832;SDS011;43667;53.036;6.740;2023-04-06T00:12:51;7.00;;;4.00;;
57832;SDS011;43667;53.036;6.740;2023-04-06T00:15:17;6.35;;;4.15;;
57832;SDS011;43667;53.036;6.740;2023-04-06T00:17:43;4.55;;;3.85;;
57832;SDS011;43667;53.036;6.740;2023-04-06T00:20:08;7.78;;;3.92;;
57832;SDS011;43667;53.036;6.740;2023-04-06T00:22:35;6.43;;;3.58;;
57832;SDS011;43667;53.036;6.740;2023-04-06T00:25:00;7.25;;;4.07;;
57832;SDS011;43667;53.036;6.740;2023-04-06T00:27:26;5.85;;;4.30;;
57832;SDS011;43667;53.036;6.740;2023-04-06T00:29:52;7.20;;;4.22;;
57832;SDS011;43667;53.036;6.740;2023-04-06T00:32:17;7.68;;;4.43;;
57832;SDS011;43667;53.036;6.740;2023-04-06T00:34:43;8.73;;;4.07;;
57832;SDS011;43667;53.036;6.740;2023-04-06T00:37:08;4.60;;;3.97;;
57832;SDS011;43667;53.036;6.740;2023-04-06T00:39:34;5.78;;;3.83;;
57832;SDS011;43667;53.036;6.740;2023-04-06T00:42:00;5.68;;;4.35;;
57832;SDS011;43667;53.036;6.740;2023-04-06T00:44:32;8.90;;;4.28;;
57832;SDS011;43667;53.036;6.740;2023-04-06T00:46:58;10.18;;;4.38;;
57832;SDS011;43667;53.036;6.740;2023-04-06T00:49:23;8.32;;;4.70;;
57832;SDS011;43667;53.036;6.740;2023-04-06T00:51:49;5.25;;;4.30;;
57832;SDS011;43667;53.036;6.740;2023-04-06T00:54:14;8.90;;;4.70;;
57832;SDS011;43667;53.036;6.740;2023-04-06T00:56:41;7.45;;;5.20;;
57832;SDS011;43667;53.036;6.740;2023-04-06T00:59:07;8.30;;;4.35;;
57832;SDS011;43667;53.036;6.740;2023-04-06T01:01:33;7.80;;;4.47;;
57832;SDS011;43667;53.036;6.740;2023-04-06T01:03:58;7.82;;;4.82;;
57832;SDS011;43667;53.036;6.740;2023-04-06T01:06:24;6.70;;;4.20;;
57832;SDS011;43667;53.036;6.740;2023-04-06T01:08:50;6.40;;;4.80;;
57832;SDS011;43667;53.036;6.740;2023-04-06T01:11:16;9.02;;;5.03;;
57832;SDS011;43667;53.036;6.740;2023-04-06T01:13:42;6.43;;;4.63;;
57832;SDS011;43667;53.036;6.740;2023-04-06T01:16:08;5.93;;;4.50;;
57832;SDS011;43667;53.036;6.740;2023-04-06T01:18:34;7.05;;;4.28;;
57832;SDS011;43667;53.036;6.740;2023-04-06T01:21:01;10.57;;;5.18;;
57832;SDS011;43667;53.036;6.740;2023-04-06T01:23:26;8.30;;;4.88;;
57832;SDS011;43667;53.036;6.740;2023-04-06T01:25:52;6.70;;;4.90;;
57832;SDS011;43667;53.036;6.740;2023-04-06T01:28:17;10.25;;;4.38;;
57832;SDS011;43667;53.036;6.740;2023-04-06T01:30:43;8.00;;;4.55;;
57832;SDS011;43667;53.036;6.740;2023-04-06T01:33:08;7.47;;;4.80;;
57832;SDS011;43667;53.036;6.740;2023-04-06T01:35:34;7.82;;;4.75;;
57832;SDS011;43667;53.036;6.740;2023-04-06T01:38:00;7.50;;;4.72;;
57832;SDS011;43667;53.036;6.740;2023-04-06T01:40:26;10.10;;;4.93;;
57832;SDS011;43667;53.036;6.740;2023-04-06T01:42:51;8.23;;;4.85;;
57832;SDS011;43667;53.036;6.740;2023-04-06T01:45:17;5.95;;;4.68;;
57832;SDS011;43667;53.036;6.740;2023-04-06T01:47:42;6.38;;;4.60;;
57832;SDS011;43667;53.036;6.740;2023-04-06T01:50:08;8.27;;;5.25;;
57832;SDS011;43667;53.036;6.740;2023-04-06T01:52:34;8.98;;;4.70;;
57832;SDS011;43667;53.036;6.740;2023-04-06T01:54:59;11.30;;;5.30;;
57832;SDS011;43667;53.036;6.740;2023-04-06T01:57:25;8.60;;;5.10;;
57832;SDS011;43667;53.036;6.740;2023-04-06T01:59:50;6.68;;;5.07;;
57832;SDS011;43667;53.036;6.740;2023-04-06T02:02:16;7.15;;;5.25;;
57832;SDS011;43667;53.036;6.740;2023-04-06T02:04:42;9.20;;;5.40;;
57832;SDS011;43667;53.036;6.740;2023-04-06T02:07:07;7.22;;;5.00;;
57832;SDS011;43667;53.036;6.740;2023-04-06T02:09:33;7.22;;;5.50;;
57832;SDS011;43667;53.036;6.740;2023-04-06T02:11:59;7.60;;;5.18;;
57832;SDS011;43667;53.036;6.740;2023-04-06T02:14:26;7.28;;;5.50;;
57832;SDS011;43667;53.036;6.740;2023-04-06T02:16:51;10.27;;;5.38;;
57832;SDS011;43667;53.036;6.740;2023-04-06T02:19:17;6.57;;;5.10;;
57832;SDS011;43667;53.036;6.740;2023-04-06T02:21:42;9.93;;;5.65;;
57832;SDS011;43667;53.036;6.740;2023-04-06T02:24:08;7.13;;;4.93;;
57832;SDS011;43667;53.036;6.740;2023-04-06T02:26:33;7.40;;;5.22;;
57832;SDS011;43667;53.036;6.740;2023-04-06T02:28:59;9.77;;;5.40;;
57832;SDS011;43667;53.036;6.740;2023-04-06T02:31:26;6.72;;;5.13;;
57832;SDS011;43667;53.036;6.740;2023-04-06T02:33:51;8.00;;;5.25;;
57832;SDS011;43667;53.036;6.740;2023-04-06T02:36:17;7.15;;;5.13;;
57832;SDS011;43667;53.036;6.740;2023-04-06T02:38:42;10.15;;;5.85;;
57832;SDS011;43667;53.036;6.740;2023-04-06T02:41:08;8.50;;;5.50;;
57832;SDS011;43667;53.036;6.740;2023-04-06T02:43:34;11.90;;;5.40;;
57832;SDS011;43667;53.036;6.740;2023-04-06T02:46:00;10.43;;;5.22;;
57832;SDS011;43667;53.036;6.740;2023-04-06T02:48:25;10.05;;;5.68;;
57832;SDS011;43667;53.036;6.740;2023-04-06T02:50:51;9.05;;;6.13;;
57832;SDS011;43667;53.036;6.740;2023-04-06T02:53:16;10.77;;;5.38;;
57832;SDS011;43667;53.036;6.740;2023-04-06T02:55:42;9.55;;;5.82;;
57832;SDS011;43667;53.036;6.740;2023-04-06T02:58:08;9.43;;;5.68;;
57832;SDS011;43667;53.036;6.740;2023-04-06T03:00:33;5.60;;;4.97;;
57832;SDS011;43667;53.036;6.740;2023-04-06T03:02:59;8.05;;;5.65;;
57832;SDS011;43667;53.036;6.740;2023-04-06T03:05:24;8.38;;;5.82;;
57832;SDS011;43667;53.036;6.740;2023-04-06T03:07:50;8.35;;;6.55;;
57832;SDS011;43667;53.036;6.740;2023-04-06T03:10:15;8.15;;;5.53;;
57832;SDS011;43667;53.036;6.740;2023-04-06T03:12:41;7.68;;;5.68;;
57832;SDS011;43667;53.036;6.740;2023-04-06T03:15:07;6.75;;;6.00;;
57832;SDS011;43667;53.036;6.740;2023-04-06T03:17:33;8.10;;;6.38;;
57832;SDS011;43667;53.036;6.740;2023-04-06T03:19:59;9.48;;;6.55;;
57832;SDS011;43667;53.036;6.740;2023-04-06T03:22:24;10.18;;;6.53;;
57832;SDS011;43667;53.036;6.740;2023-04-06T03:24:50;8.80;;;5.78;;
57832;SDS011;43667;53.036;6.740;2023-04-06T03:27:18;9.35;;;6.10;;
57832;SDS011;43667;53.036;6.740;2023-04-06T03:29:44;9.38;;;6.38;;
57832;SDS011;43667;53.036;6.740;2023-04-06T03:32:10;9.23;;;6.20;;
57832;SDS011;43667;53.036;6.740;2023-04-06T03:34:35;7.68;;;6.13;;
57832;SDS011;43667;53.036;6.740;2023-04-06T03:37:01;10.70;;;6.38;;
57832;SDS011;43667;53.036;6.740;2023-04-06T03:39:26;6.93;;;5.80;;
57832;SDS011;43667;53.036;6.740;2023-04-06T03:41:52;8.10;;;6.43;;
57832;SDS011;43667;53.036;6.740;2023-04-06T03:44:17;10.88;;;6.30;;
57832;SDS011;43667;53.036;6.740;2023-04-06T03:46:43;8.73;;;5.88;;
57832;SDS011;43667;53.036;6.740;2023-04-06T03:49:08;7.43;;;6.18;;
57832;SDS011;43667;53.036;6.740;2023-04-06T03:51:34;10.68;;;6.05;;
57832;SDS011;43667;53.036;6.740;2023-04-06T03:54:00;8.60;;;5.97;;
57832;SDS011;43667;53.036;6.740;2023-04-06T03:56:25;9.73;;;6.40;;
57832;SDS011;43667;53.036;6.740;2023-04-06T03:58:51;9.75;;;6.45;;
57832;SDS011;43667;53.036;6.740;2023-04-06T04:01:17;7.78;;;6.38;;
57832;SDS011;43667;53.036;6.740;2023-04-06T04:03:43;7.28;;;5.80;;
57832;SDS011;43667;53.036;6.740;2023-04-06T04:06:09;8.07;;;6.25;;
57832;SDS011;43667;53.036;6.740;2023-04-06T04:08:34;8.02;;;6.10;;
57832;SDS011;43667;53.036;6.740;2023-04-06T04:11:00;9.88;;;6.35;;
57832;SDS011;43667;53.036;6.740;2023-04-06T04:13:26;9.93;;;6.72;;
57832;SDS011;43667;53.036;6.740;2023-04-06T04:15:52;11.77;;;6.07;;
57832;SDS011;43667;53.036;6.740;2023-04-06T04:18:18;8.50;;;6.40;;
57832;SDS011;43667;53.036;6.740;2023-04-06T04:20:43;11.52;;;6.68;;
57832;SDS011;43667;53.036;6.740;2023-04-06T04:23:09;10.02;;;6.65;;
57832;SDS011;43667;53.036;6.740;2023-04-06T04:25:35;9.13;;;7.03;;
57832;SDS011;43667;53.036;6.740;2023-04-06T04:28:00;8.50;;;6.47;;
57832;SDS011;43667;53.036;6.740;2023-04-06T04:30:26;8.23;;;6.57;;
57832;SDS011;43667;53.036;6.740;2023-04-06T04:32:52;8.10;;;6.55;;
57832;SDS011;43667;53.036;6.740;2023-04-06T04:35:17;11.35;;;6.63;;
57832;SDS011;43667;53.036;6.740;2023-04-06T04:37:43;11.77;;;7.60;;
57832;SDS011;43667;53.036;6.740;2023-04-06T04:40:09;10.45;;;6.72;;
57832;SDS011;43667;53.036;6.740;2023-04-06T04:42:35;9.15;;;7.15;;
57832;SDS011;43667;53.036;6.740;2023-04-06T04:45:00;9.40;;;6.85;;
57832;SDS011;43667;53.036;6.740;2023-04-06T04:47:26;11.73;;;7.05;;
57832;SDS011;43667;53.036;6.740;2023-04-06T04:49:51;9.48;;;7.20;;
57832;SDS011;43667;53.036;6.740;2023-04-06T04:52:17;8.45;;;7.15;;
57832;SDS011;43667;53.036;6.740;2023-04-06T04:54:42;10.00;;;7.10;;
57832;SDS011;43667;53.036;6.740;2023-04-06T04:57:08;8.45;;;6.20;;
57832;SDS011;43667;53.036;6.740;2023-04-06T04:59:34;8.93;;;7.35;;
57832;SDS011;43667;53.036;6.740;2023-04-06T05:02:00;8.75;;;7.07;;
57832;SDS011;43667;53.036;6.740;2023-04-06T05:04:26;11.38;;;7.35;;
57832;SDS011;43667;53.036;6.740;2023-04-06T05:07:01;9.05;;;7.05;;
57832;SDS011;43667;53.036;6.740;2023-04-06T05:09:29;12.95;;;8.00;;
57832;SDS011;43667;53.036;6.740;2023-04-06T05:11:55;10.32;;;7.47;;
57832;SDS011;43667;53.036;6.740;2023-04-06T05:14:21;10.05;;;7.05;;
57832;SDS011;43667;53.036;6.740;2023-04-06T05:16:47;8.05;;;7.20;;
57832;SDS011;43667;53.036;6.740;2023-04-06T05:19:12;9.77;;;7.18;;
57832;SDS011;43667;53.036;6.740;2023-04-06T05:21:38;8.30;;;7.43;;
57832;SDS011;43667;53.036;6.740;2023-04-06T05:24:03;12.52;;;7.43;;
57832;SDS011;43667;53.036;6.740;2023-04-06T05:26:29;12.23;;;7.82;;
57832;SDS011;43667;53.036;6.740;2023-04-06T05:28:55;11.10;;;7.18;;
57832;SDS011;43667;53.036;6.740;2023-04-06T05:31:20;9.98;;;8.27;;
57832;SDS011;43667;53.036;6.740;2023-04-06T05:33:46;11.50;;;7.68;;
57832;SDS011;43667;53.036;6.740;2023-04-06T05:36:12;8.77;;;7.63;;
57832;SDS011;43667;53.036;6.740;2023-04-06T05:38:37;8.95;;;7.65;;
57832;SDS011;43667;53.036;6.740;2023-04-06T05:41:03;9.45;;;7.60;;
57832;SDS011;43667;53.036;6.740;2023-04-06T05:43:29;9.70;;;8.23;;
57832;SDS011;43667;53.036;6.740;2023-04-06T05:45:54;12.48;;;7.65;;
57832;SDS011;43667;53.036;6.740;2023-04-06T05:48:20;11.27;;;8.45;;
57832;SDS011;43667;53.036;6.740;2023-04-06T05:50:49;10.98;;;7.88;;
57832;SDS011;43667;53.036;6.740;2023-04-06T05:53:18;9.95;;;7.93;;
57832;SDS011;43667;53.036;6.740;2023-04-06T05:55:45;13.05;;;8.07;;
57832;SDS011;43667;53.036;6.740;2023-04-06T05:58:11;11.68;;;8.20;;
57832;SDS011;43667;53.036;6.740;2023-04-06T06:00:37;10.48;;;8.52;;
57832;SDS011;43667;53.036;6.740;2023-04-06T06:03:02;10.90;;;8.68;;
57832;SDS011;43667;53.036;6.740;2023-04-06T06:05:33;14.27;;;9.05;;
57832;SDS011;43667;53.036;6.740;2023-04-06T06:07:59;12.07;;;8.73;;
57832;SDS011;43667;53.036;6.740;2023-04-06T06:10:27;11.88;;;8.23;;
57832;SDS011;43667;53.036;6.740;2023-04-06T06:12:52;10.25;;;8.52;;
57832;SDS011;43667;53.036;6.740;2023-04-06T06:15:18;11.38;;;8.45;;
57832;SDS011;43667;53.036;6.740;2023-04-06T06:17:44;11.50;;;8.70;;
57832;SDS011;43667;53.036;6.740;2023-04-06T06:20:09;13.88;;;8.73;;
57832;SDS011;43667;53.036;6.740;2023-04-06T06:22:35;10.75;;;8.38;;
57832;SDS011;43667;53.036;6.740;2023-04-06T06:25:01;13.57;;;9.18;;
57832;SDS011;43667;53.036;6.740;2023-04-06T06:27:27;14.48;;;9.10;;
57832;SDS011;43667;53.036;6.740;2023-04-06T06:29:53;13.48;;;8.48;;
57832;SDS011;43667;53.036;6.740;2023-04-06T06:32:18;12.85;;;8.95;;
57832;SDS011;43667;53.036;6.740;2023-04-06T06:34:44;9.75;;;8.48;;
57832;SDS011;43667;53.036;6.740;2023-04-06T06:37:09;10.43;;;8.68;;
57832;SDS011;43667;53.036;6.740;2023-04-06T06:39:35;12.15;;;8.40;;
57832;SDS011;43667;53.036;6.740;2023-04-06T06:42:01;9.68;;;8.10;;
57832;SDS011;43667;53.036;6.740;2023-04-06T06:44:27;13.65;;;9.00;;
57832;SDS011;43667;53.036;6.740;2023-04-06T06:46:53;8.57;;;7.65;;
57832;SDS011;43667;53.036;6.740;2023-04-06T06:49:19;11.10;;;8.05;;
57832;SDS011;43667;53.036;6.740;2023-04-06T06:51:45;11.43;;;7.90;;
57832;SDS011;43667;53.036;6.740;2023-04-06T06:54:11;10.60;;;8.07;;
57832;SDS011;43667;53.036;6.740;2023-04-06T06:56:37;11.68;;;8.23;;
57832;SDS011;43667;53.036;6.740;2023-04-06T06:59:04;15.85;;;7.88;;
57832;SDS011;43667;53.036;6.740;2023-04-06T07:01:32;13.20;;;8.13;;
57832;SDS011;43667;53.036;6.740;2023-04-06T07:03:59;10.45;;;7.30;;
57832;SDS011;43667;53.036;6.740;2023-04-06T07:06:25;11.40;;;7.93;;
57832;SDS011;43667;53.036;6.740;2023-04-06T07:08:50;10.63;;;7.80;;
57832;SDS011;43667;53.036;6.740;2023-04-06T07:11:16;9.77;;;7.50;;
57832;SDS011;43667;53.036;6.740;2023-04-06T07:13:42;13.40;;;7.90;;
57832;SDS011;43667;53.036;6.740;2023-04-06T07:16:08;9.65;;;7.85;;
57832;SDS011;43667;53.036;6.740;2023-04-06T07:18:33;10.48;;;8.15;;
57832;SDS011;43667;53.036;6.740;2023-04-06T07:20:59;8.70;;;7.35;;
57832;SDS011;43667;53.036;6.740;2023-04-06T07:23:25;11.85;;;7.47;;
57832;SDS011;43667;53.036;6.740;2023-04-06T07:25:50;10.25;;;7.97;;
57832;SDS011;43667;53.036;6.740;2023-04-06T07:28:18;11.15;;;7.95;;
57832;SDS011;43667;53.036;6.740;2023-04-06T07:30:44;11.38;;;8.15;;
57832;SDS011;43667;53.036;6.740;2023-04-06T07:33:10;10.85;;;8.32;;
57832;SDS011;43667;53.036;6.740;2023-04-06T07:35:35;9.52;;;7.97;;
57832;SDS011;43667;53.036;6.740;2023-04-06T07:38:01;11.15;;;8.40;;
57832;SDS011;43667;53.036;6.740;2023-04-06T07:40:27;11.23;;;8.05;;
57832;SDS011;43667;53.036;6.740;2023-04-06T07:42:53;9.93;;;8.27;;
57832;SDS011;43667;53.036;6.740;2023-04-06T07:45:19;9.30;;;8.10;;
57832;SDS011;43667;53.036;6.740;2023-04-06T07:47:45;11.55;;;8.18;;
57832;SDS011;43667;53.036;6.740;2023-04-06T07:50:10;11.40;;;8.65;;
57832;SDS011;43667;53.036;6.740;2023-04-06T07:52:36;10.55;;;8.07;;
57832;SDS011;43667;53.036;6.740;2023-04-06T07:55:03;11.63;;;7.55;;
57832;SDS011;43667;53.036;6.740;2023-04-06T07:57:29;12.05;;;8.10;;
57832;SDS011;43667;53.036;6.740;2023-04-06T07:59:54;9.52;;;7.63;;
57832;SDS011;43667;53.036;6.740;2023-04-06T08:02:20;13.43;;;8.13;;
57832;SDS011;43667;53.036;6.740;2023-04-06T08:04:47;9.55;;;7.47;;
57832;SDS011;43667;53.036;6.740;2023-04-06T08:07:14;10.50;;;7.43;;
57832;SDS011;43667;53.036;6.740;2023-04-06T08:09:39;11.20;;;8.35;;
57832;SDS011;43667;53.036;6.740;2023-04-06T08:12:05;13.95;;;7.55;;
57832;SDS011;43667;53.036;6.740;2023-04-06T08:14:31;8.38;;;7.13;;
57832;SDS011;43667;53.036;6.740;2023-04-06T08:16:56;11.23;;;7.97;;
57832;SDS011;43667;53.036;6.740;2023-04-06T08:19:22;10.30;;;7.63;;
57832;SDS011;43667;53.036;6.740;2023-04-06T08:21:48;9.98;;;7.10;;
57832;SDS011;43667;53.036;6.740;2023-04-06T08:24:14;10.00;;;7.80;;
57832;SDS011;43667;53.036;6.740;2023-04-06T08:26:40;8.65;;;7.20;;
57832;SDS011;43667;53.036;6.740;2023-04-06T08:29:05;12.82;;;8.52;;
57832;SDS011;43667;53.036;6.740;2023-04-06T08:31:34;9.30;;;7.55;;
57832;SDS011;43667;53.036;6.740;2023-04-06T08:34:01;8.40;;;7.47;;
57832;SDS011;43667;53.036;6.740;2023-04-06T08:36:28;10.23;;;7.97;;
57832;SDS011;43667;53.036;6.740;2023-04-06T08:38:54;10.50;;;7.95;;
57832;SDS011;43667;53.036;6.740;2023-04-06T08:41:19;8.43;;;7.28;;
57832;SDS011;43667;53.036;6.740;2023-04-06T08:43:49;8.45;;;7.38;;
57832;SDS011;43667;53.036;6.740;2023-04-06T08:46:24;10.13;;;7.57;;
57832;SDS011;43667;53.036;6.740;2023-04-06T08:48:54;9.23;;;7.80;;
57832;SDS011;43667;53.036;6.740;2023-04-06T08:51:26;12.82;;;8.07;;
57832;SDS011;43667;53.036;6.740;2023-04-06T08:53:57;12.68;;;9.80;;
57832;SDS011;43667;53.036;6.740;2023-04-06T08:56:25;9.23;;;8.02;;
57832;SDS011;43667;53.036;6.740;2023-04-06T08:58:51;10.68;;;8.07;;
57832;SDS011;43667;53.036;6.740;2023-04-06T09:01:20;8.07;;;6.78;;
57832;SDS011;43667;53.036;6.740;2023-04-06T09:03:48;9.05;;;7.70;;
57832;SDS011;43667;53.036;6.740;2023-04-06T09:06:15;10.50;;;7.78;;
57832;SDS011;43667;53.036;6.740;2023-04-06T09:08:41;13.45;;;7.63;;
57832;SDS011;43667;53.036;6.740;2023-04-06T09:11:07;9.25;;;7.60;;
57832;SDS011;43667;53.036;6.740;2023-04-06T09:16:16;11.25;;;8.18;;
57832;SDS011;43667;53.036;6.740;2023-04-06T09:18:42;9.85;;;7.28;;
57832;SDS011;43667;53.036;6.740;2023-04-06T09:21:08;10.10;;;7.45;;
57832;SDS011;43667;53.036;6.740;2023-04-06T09:23:35;10.45;;;7.45;;
57832;SDS011;43667;53.036;6.740;2023-04-06T09:26:05;11.48;;;7.80;;
57832;SDS011;43667;53.036;6.740;2023-04-06T09:28:45;11.48;;;7.50;;
57832;SDS011;43667;53.036;6.740;2023-04-06T09:31:24;10.73;;;7.55;;
57832;SDS011;43667;53.036;6.740;2023-04-06T09:33:51;10.38;;;7.70;;
57832;SDS011;43667;53.036;6.740;2023-04-06T09:36:17;10.10;;;8.05;;
57832;SDS011;43667;53.036;6.740;2023-04-06T09:38:56;10.82;;;8.02;;
57832;SDS011;43667;53.036;6.740;2023-04-06T09:41:33;11.43;;;8.18;;
57832;SDS011;43667;53.036;6.740;2023-04-06T09:46:33;11.15;;;8.55;;
57832;SDS011;43667;53.036;6.740;2023-04-06T09:49:03;10.32;;;8.32;;
57832;SDS011;43667;53.036;6.740;2023-04-06T09:51:31;13.15;;;9.18;;
57832;SDS011;43667;53.036;6.740;2023-04-06T09:54:11;9.75;;;8.40;;
57832;SDS011;43667;53.036;6.740;2023-04-06T09:57:04;9.57;;;8.35;;
57832;SDS011;43667;53.036;6.740;2023-04-06T09:59:44;12.65;;;8.07;;
57832;SDS011;43667;53.036;6.740;2023-04-06T10:02:33;12.15;;;8.65;;
57832;SDS011;43667;53.036;6.740;2023-04-06T10:07:57;10.38;;;8.88;;
57832;SDS011;43667;53.036;6.740;2023-04-06T10:10:25;10.40;;;8.75;;
57832;SDS011;43667;53.036;6.740;2023-04-06T10:12:51;14.52;;;9.13;;
57832;SDS011;43667;53.036;6.740;2023-04-06T10:15:18;11.15;;;9.02;;
57832;SDS011;43667;53.036;6.740;2023-04-06T10:17:44;13.02;;;9.43;;
57832;SDS011;43667;53.036;6.740;2023-04-06T10:20:11;11.55;;;9.55;;
57832;SDS011;43667;53.036;6.740;2023-04-06T10:27:41;17.15;;;11.18;;
57832;SDS011;43667;53.036;6.740;2023-04-06T10:30:06;19.55;;;12.80;;
57832;SDS011;43667;53.036;6.740;2023-04-06T10:32:36;17.20;;;13.32;;
57832;SDS011;43667;53.036;6.740;2023-04-06T10:35:09;14.73;;;12.50;;
57832;SDS011;43667;53.036;6.740;2023-04-06T10:40:28;15.32;;;13.20;;
57832;SDS011;43667;53.036;6.740;2023-04-06T10:42:54;20.75;;;14.30;;
57832;SDS011;43667;53.036;6.740;2023-04-06T10:45:25;18.48;;;12.82;;
57832;SDS011;43667;53.036;6.740;2023-04-06T10:47:54;15.68;;;12.73;;
57832;SDS011;43667;53.036;6.740;2023-04-06T10:50:21;19.38;;;15.05;;
57832;SDS011;43667;53.036;6.740;2023-04-06T10:52:47;19.00;;;14.43;;
57832;SDS011;43667;53.036;6.740;2023-04-06T10:55:29;17.95;;;14.43;;
57832;SDS011;43667;53.036;6.740;2023-04-06T10:57:58;17.98;;;15.25;;
57832;SDS011;43667;53.036;6.740;2023-04-06T11:00:24;18.02;;;14.40;;
57832;SDS011;43667;53.036;6.740;2023-04-06T11:02:50;18.65;;;15.63;;
57832;SDS011;43667;53.036;6.740;2023-04-06T11:05:16;18.95;;;15.52;;
57832;SDS011;43667;53.036;6.740;2023-04-06T11:07:41;20.23;;;15.20;;
57832;SDS011;43667;53.036;6.740;2023-04-06T11:10:07;19.95;;;16.23;;
57832;SDS011;43667;53.036;6.740;2023-04-06T11:12:34;19.83;;;15.35;;
57832;SDS011;43667;53.036;6.740;2023-04-06T11:15:00;22.00;;;16.95;;
57832;SDS011;43667;53.036;6.740;2023-04-06T11:17:34;21.50;;;17.25;;
57832;SDS011;43667;53.036;6.740;2023-04-06T11:20:01;17.30;;;15.13;;
57832;SDS011;43667;53.036;6.740;2023-04-06T11:22:28;20.02;;;14.95;;
57832;SDS011;43667;53.036;6.740;2023-04-06T11:25:07;19.83;;;16.30;;
57832;SDS011;43667;53.036;6.740;2023-04-06T11:27:36;20.88;;;15.85;;
57832;SDS011;43667;53.036;6.740;2023-04-06T11:30:02;22.77;;;17.33;;
57832;SDS011;43667;53.036;6.740;2023-04-06T11:32:29;24.30;;;16.50;;
57832;SDS011;43667;53.036;6.740;2023-04-06T11:35:06;23.95;;;17.15;;
57832;SDS011;43667;53.036;6.740;2023-04-06T11:37:31;21.75;;;16.95;;
57832;SDS011;43667;53.036;6.740;2023-04-06T11:39:57;20.80;;;16.30;;
57832;SDS011;43667;53.036;6.740;2023-04-06T11:42:24;25.67;;;17.75;;
57832;SDS011;43667;53.036;6.740;2023-04-06T11:44:51;23.50;;;18.17;;
57832;SDS011;43667;53.036;6.740;2023-04-06T11:47:19;20.23;;;17.27;;
57832;SDS011;43667;53.036;6.740;2023-04-06T11:49:51;24.33;;;18.77;;
57832;SDS011;43667;53.036;6.740;2023-04-06T11:52:24;23.83;;;19.30;;
57832;SDS011;43667;53.036;6.740;2023-04-06T11:54:53;22.52;;;18.73;;
57832;SDS011;43667;53.036;6.740;2023-04-06T11:57:20;21.85;;;18.08;;
57832;SDS011;43667;53.036;6.740;2023-04-06T12:00:02;22.02;;;18.42;;
57832;SDS011;43667;53.036;6.740;2023-04-06T12:02:28;23.00;;;19.50;;
57832;SDS011;43667;53.036;6.740;2023-04-06T12:04:53;22.60;;;18.88;;
57832;SDS011;43667;53.036;6.740;2023-04-06T12:07:19;23.63;;;19.52;;
57832;SDS011;43667;53.036;6.740;2023-04-06T12:09:44;24.63;;;20.05;;
57832;SDS011;43667;53.036;6.740;2023-04-06T12:12:10;22.73;;;19.58;;
57832;SDS011;43667;53.036;6.740;2023-04-06T12:14:36;22.42;;;19.92;;
57832;SDS011;43667;53.036;6.740;2023-04-06T12:17:01;22.52;;;18.83;;
57832;SDS011;43667;53.036;6.740;2023-04-06T12:19:27;23.65;;;19.23;;
57832;SDS011;43667;53.036;6.740;2023-04-06T12:21:52;23.40;;;19.70;;
57832;SDS011;43667;53.036;6.740;2023-04-06T12:24:19;25.77;;;19.35;;
57832;SDS011;43667;53.036;6.740;2023-04-06T12:26:45;22.98;;;19.65;;
57832;SDS011;43667;53.036;6.740;2023-04-06T12:29:10;24.15;;;18.70;;
57832;SDS011;43667;53.036;6.740;2023-04-06T12:31:38;22.17;;;19.08;;
57832;SDS011;43667;53.036;6.740;2023-04-06T12:34:05;21.70;;;19.40;;
57832;SDS011;43667;53.036;6.740;2023-04-06T12:36:31;20.60;;;18.40;;
57832;SDS011;43667;53.036;6.740;2023-04-06T12:38:57;20.58;;;18.38;;
57832;SDS011;43667;53.036;6.740;2023-04-06T12:41:23;23.17;;;18.33;;
57832;SDS011;43667;53.036;6.740;2023-04-06T12:43:49;22.40;;;19.27;;
57832;SDS011;43667;53.036;6.740;2023-04-06T12:46:15;22.05;;;19.45;;
57832;SDS011;43667;53.036;6.740;2023-04-06T12:48:41;22.45;;;19.20;;
57832;SDS011;43667;53.036;6.740;2023-04-06T12:51:07;24.77;;;19.65;;
57832;SDS011;43667;53.036;6.740;2023-04-06T12:53:33;22.73;;;19.77;;
57832;SDS011;43667;53.036;6.740;2023-04-06T12:55:59;26.08;;;20.15;;
57832;SDS011;43667;53.036;6.740;2023-04-06T12:58:26;24.20;;;20.00;;
57832;SDS011;43667;53.036;6.740;2023-04-06T13:00:52;24.08;;;19.65;;
57832;SDS011;43667;53.036;6.740;2023-04-06T13:03:18;22.63;;;19.00;;
57832;SDS011;43667;53.036;6.740;2023-04-06T13:05:51;23.98;;;18.33;;
57832;SDS011;43667;53.036;6.740;2023-04-06T13:08:17;20.85;;;18.70;;
57832;SDS011;43667;53.036;6.740;2023-04-06T13:10:44;25.67;;;20.50;;
57832;SDS011;43667;53.036;6.740;2023-04-06T13:13:09;23.60;;;20.25;;
57832;SDS011;43667;53.036;6.740;2023-04-06T13:15:35;24.40;;;20.42;;
57832;SDS011;43667;53.036;6.740;2023-04-06T13:18:01;23.17;;;20.25;;
57832;SDS011;43667;53.036;6.740;2023-04-06T13:20:27;22.88;;;19.63;;
57832;SDS011;43667;53.036;6.740;2023-04-06T13:22:53;25.23;;;19.20;;
57832;SDS011;43667;53.036;6.740;2023-04-06T13:25:19;23.65;;;20.17;;
57832;SDS011;43667;53.036;6.740;2023-04-06T13:27:45;23.13;;;19.17;;
57832;SDS011;43667;53.036;6.740;2023-04-06T13:30:12;24.08;;;19.27;;
57832;SDS011;43667;53.036;6.740;2023-04-06T13:32:39;23.98;;;19.83;;
57832;SDS011;43667;53.036;6.740;2023-04-06T13:35:05;24.75;;;20.45;;
57832;SDS011;43667;53.036;6.740;2023-04-06T13:37:31;22.23;;;19.85;;
57832;SDS011;43667;53.036;6.740;2023-04-06T13:39:57;21.60;;;19.30;;
57832;SDS011;43667;53.036;6.740;2023-04-06T13:42:23;21.98;;;18.92;;
57832;SDS011;43667;53.036;6.740;2023-04-06T13:44:48;24.92;;;19.20;;
57832;SDS011;43667;53.036;6.740;2023-04-06T13:47:15;23.85;;;19.13;;
57832;SDS011;43667;53.036;6.740;2023-04-06T13:49:41;21.60;;;19.17;;
57832;SDS011;43667;53.036;6.740;2023-04-06T13:52:07;21.38;;;18.42;;
57832;SDS011;43667;53.036;6.740;2023-04-06T13:54:34;21.98;;;19.55;;
57832;SDS011;43667;53.036;6.740;2023-04-06T13:57:00;22.95;;;19.52;;
57832;SDS011;43667;53.036;6.740;2023-04-06T13:59:31;23.27;;;18.25;;
57832;SDS011;43667;53.036;6.740;2023-04-06T14:01:58;20.23;;;18.10;;
57832;SDS011;43667;53.036;6.740;2023-04-06T14:04:24;19.92;;;17.20;;
57832;SDS011;43667;53.036;6.740;2023-04-06T14:06:49;26.25;;;17.23;;
57832;SDS011;43667;53.036;6.740;2023-04-06T14:09:15;21.67;;;16.40;;
57832;SDS011;43667;53.036;6.740;2023-04-06T14:11:40;22.33;;;16.65;;
57832;SDS011;43667;53.036;6.740;2023-04-06T14:14:06;19.95;;;15.88;;
57832;SDS011;43667;53.036;6.740;2023-04-06T14:16:32;21.88;;;15.35;;
57832;SDS011;43667;53.036;6.740;2023-04-06T14:18:57;18.38;;;14.20;;
57832;SDS011;43667;53.036;6.740;2023-04-06T14:21:23;17.92;;;15.85;;
57832;SDS011;43667;53.036;6.740;2023-04-06T14:23:49;18.00;;;14.88;;
57832;SDS011;43667;53.036;6.740;2023-04-06T14:26:15;15.35;;;13.57;;
57832;SDS011;43667;53.036;6.740;2023-04-06T14:28:41;17.17;;;14.32;;
57832;SDS011;43667;53.036;6.740;2023-04-06T14:31:11;15.57;;;13.98;;
57832;SDS011;43667;53.036;6.740;2023-04-06T14:33:38;18.48;;;14.35;;
57832;SDS011;43667;53.036;6.740;2023-04-06T14:36:04;19.17;;;15.10;;
57832;SDS011;43667;53.036;6.740;2023-04-06T14:38:33;17.73;;;15.32;;
57832;SDS011;43667;53.036;6.740;2023-04-06T14:40:59;19.33;;;16.73;;
57832;SDS011;43667;53.036;6.740;2023-04-06T14:43:25;18.30;;;16.02;;
57832;SDS011;43667;53.036;6.740;2023-04-06T14:45:51;18.48;;;16.17;;
57832;SDS011;43667;53.036;6.740;2023-04-06T14:48:17;17.23;;;15.50;;